Time;durP1;ratioP1;P1;durP2;ratioP2;P2;SDS_P1;SDS_P2;PMS_P1;PMS_P2;Temp;Humidity;BMP_temperature;BMP_pressure;BME280_temperature;BME280_humidity;BME280_pressure;Samples;Min_cycle;Max_cycle;Signal;HPM_P1;HPM_P2
2021/11/05 00:00:40;;;;;;;5.63;1.92;;;;;;;;;;7396583;19;20011;-61
2021/11/05 00:03:08;;;;;;;3.03;1.50;;;;;;;;;;7396021;19;20534;-61
2021/11/05 00:05:35;;;;;;;3.60;1.45;;;;;;;;;;7395630;19;20011;-61
2021/11/05 00:08:07;;;;;;;4.97;1.45;;;;;;;;;;7391865;19;20013;-62
2021/11/05 00:10:37;;;;;;;2.40;1.40;;;;;;;;;;7396370;19;20014;-61
2021/11/05 00:13:06;;;;;;;2.50;1.50;;;;;;;;;;7395570;19;20494;-61
2021/11/05 00:15:33;;;;;;;4.03;1.50;;;;;;;;;;7394606;19;20014;-61
2021/11/05 00:18:01;;;;;;;2.72;1.67;;;;;;;;;;7394444;19;20486;-61
2021/11/05 00:20:28;;;;;;;2.97;1.70;;;;;;;;;;7395784;19;20006;-61
2021/11/05 00:22:57;;;;;;;3.15;1.90;;;;;;;;;;7394337;19;20622;-61
2021/11/05 00:25:24;;;;;;;15.07;3.35;;;;;;;;;;7395174;19;20031;-61
2021/11/05 00:27:52;;;;;;;3.67;2.45;;;;;;;;;;7393075;19;20017;-62
2021/11/05 00:30:20;;;;;;;2.42;1.70;;;;;;;;;;7395377;19;20018;-61
2021/11/05 00:32:47;;;;;;;2.55;1.75;;;;;;;;;;7395732;19;20019;-61
2021/11/05 00:35:15;;;;;;;3.13;2.08;;;;;;;;;;7394930;19;20482;-61
2021/11/05 00:37:43;;;;;;;2.78;1.63;;;;;;;;;;7395924;19;20013;-61
2021/11/05 00:40:12;;;;;;;4.68;1.67;;;;;;;;;;7395778;19;20018;-62
2021/11/05 00:42:40;;;;;;;2.35;1.40;;;;;;;;;;7395471;19;20493;-61
2021/11/05 00:45:10;;;;;;;3.03;1.50;;;;;;;;;;7395129;19;20011;-61
2021/11/05 00:47:37;;;;;;;2.88;1.50;;;;;;;;;;7396252;19;20031;-62
2021/11/05 00:50:06;;;;;;;2.30;1.40;;;;;;;;;;7395115;19;20029;-62
2021/11/05 00:52:33;;;;;;;1.35;1.00;;;;;;;;;;7392746;19;20038;-62
2021/11/05 00:55:01;;;;;;;2.65;1.10;;;;;;;;;;7394500;19;20029;-62
2021/11/05 00:57:28;;;;;;;2.00;0.82;;;;;;;;;;7394587;19;20054;-62
2021/11/05 00:59:55;;;;;;;1.67;0.90;;;;;;;;;;7394383;19;20011;-61
2021/11/05 01:02:23;;;;;;;1.75;1.00;;;;;;;;;;7393797;19;20014;-61
2021/11/05 01:04:50;;;;;;;1.67;0.93;;;;;;;;;;7393228;19;20007;-62
2021/11/05 01:07:17;;;;;;;1.83;1.08;;;;;;;;;;7392617;19;20010;-62
2021/11/05 01:09:45;;;;;;;1.35;0.70;;;;;;;;;;7393823;19;20007;-62
2021/11/05 01:12:13;;;;;;;2.00;1.08;;;;;;;;;;7394631;19;20023;-62
2021/11/05 01:14:40;;;;;;;1.50;0.75;;;;;;;;;;7394238;19;20024;-61
2021/11/05 01:17:08;;;;;;;2.20;0.73;;;;;;;;;;7393329;19;20013;-62
2021/11/05 01:19:36;;;;;;;1.40;1.00;;;;;;;;;;7393773;19;20483;-62
2021/11/05 01:22:04;;;;;;;1.15;0.82;;;;;;;;;;7393495;19;20007;-61
2021/11/05 01:24:32;;;;;;;1.63;1.00;;;;;;;;;;7394220;19;20014;-61
2021/11/05 01:27:00;;;;;;;1.42;1.00;;;;;;;;;;7392388;19;20010;-62
2021/11/05 01:29:27;;;;;;;2.80;0.98;;;;;;;;;;7393653;19;20010;-61
2021/11/05 01:31:55;;;;;;;1.88;1.10;;;;;;;;;;7393323;19;20006;-62
2021/11/05 01:34:22;;;;;;;1.63;0.70;;;;;;;;;;7393908;19;20014;-62
2021/11/05 01:36:51;;;;;;;1.42;0.90;;;;;;;;;;7392710;19;20468;-61
2021/11/05 01:39:18;;;;;;;2.15;0.95;;;;;;;;;;7392929;19;20006;-61
2021/11/05 01:41:46;;;;;;;2.00;1.20;;;;;;;;;;7393040;19;20336;-62
2021/11/05 01:44:13;;;;;;;1.70;0.95;;;;;;;;;;7393522;19;20010;-62
2021/11/05 01:46:42;;;;;;;1.77;1.17;;;;;;;;;;7393996;19;20006;-61
2021/11/05 01:49:12;;;;;;;2.20;1.17;;;;;;;;;;7393099;19;20006;-61
2021/11/05 01:51:39;;;;;;;2.05;1.17;;;;;;;;;;7391820;19;20089;-62
2021/11/05 01:54:09;;;;;;;2.30;1.50;;;;;;;;;;7392911;19;20011;-61
2021/11/05 01:56:38;;;;;;;2.85;1.40;;;;;;;;;;7392828;19;20011;-61
2021/11/05 01:59:32;;;;;;;1.90;1.30;;;;;;;;;;7392282;19;20066;-62
2021/11/05 02:02:02;;;;;;;25.55;9.63;;;;;;;;;;7391986;19;20031;-62
2021/11/05 02:04:30;;;;;;;5.32;2.63;;;;;;;;;;7392205;19;20513;-61
2021/11/05 02:06:58;;;;;;;2.80;1.33;;;;;;;;;;7391160;19;20021;-61
2021/11/05 02:09:28;;;;;;;1.90;1.10;;;;;;;;;;7390990;19;20010;-61
2021/11/05 02:11:58;;;;;;;1.63;1.10;;;;;;;;;;7394127;19;20014;-62
2021/11/05 02:14:27;;;;;;;1.67;1.30;;;;;;;;;;7390287;19;20003;-61
2021/11/05 02:16:58;;;;;;;5.93;1.60;;;;;;;;;;7391604;19;20031;-62
2021/11/05 02:19:27;;;;;;;1.92;1.20;;;;;;;;;;7391592;19;20010;-61
2021/11/05 02:21:56;;;;;;;2.45;1.45;;;;;;;;;;7391692;19;20135;-61
2021/11/05 02:24:25;;;;;;;2.63;1.73;;;;;;;;;;7391347;19;20466;-61
2021/11/05 02:26:54;;;;;;;5.57;2.65;;;;;;;;;;7390421;19;20014;-61
2021/11/05 02:29:22;;;;;;;4.50;2.78;;;;;;;;;;7391202;19;20515;-61
2021/11/05 02:31:50;;;;;;;5.70;3.60;;;;;;;;;;7391563;19;20013;-62
2021/11/05 02:34:18;;;;;;;4.47;2.90;;;;;;;;;;7389941;19;20038;-61
2021/11/05 02:36:46;;;;;;;4.72;2.83;;;;;;;;;;7391274;19;20041;-62
2021/11/05 02:39:14;;;;;;;4.18;2.40;;;;;;;;;;7391069;19;20018;-61
2021/11/05 02:41:46;;;;;;;4.53;2.75;;;;;;;;;;7391284;19;20112;-64
2021/11/05 02:44:14;;;;;;;10.13;5.20;;;;;;;;;;7391465;19;20010;-62
2021/11/05 02:46:41;;;;;;;3.78;2.22;;;;;;;;;;7392538;19;20010;-62
2021/11/05 02:49:15;;;;;;;2.60;1.70;;;;;;;;;;7390969;19;20017;-61
2021/11/05 02:51:45;;;;;;;2.25;1.60;;;;;;;;;;7388384;19;20014;-60
2021/11/05 02:54:13;;;;;;;2.80;1.70;;;;;;;;;;7391290;19;20021;-62
2021/11/05 02:56:41;;;;;;;2.28;1.33;;;;;;;;;;7391186;19;20073;-62
2021/11/05 02:59:09;;;;;;;2.58;1.60;;;;;;;;;;7392531;19;20015;-62
2021/11/05 03:01:37;;;;;;;2.38;1.73;;;;;;;;;;7390118;19;20487;-62
2021/11/05 03:04:08;;;;;;;2.30;1.60;;;;;;;;;;7390452;19;20471;-62
2021/11/05 03:06:38;;;;;;;2.83;1.60;;;;;;;;;;7389830;19;20031;-62
2021/11/05 03:09:10;;;;;;;6.07;1.60;;;;;;;;;;7390214;19;20272;-63
2021/11/05 03:11:38;;;;;;;2.35;1.55;;;;;;;;;;7390422;19;20018;-62
2021/11/05 03:14:07;;;;;;;2.70;1.50;;;;;;;;;;7390036;19;20014;-62
2021/11/05 03:16:35;;;;;;;2.28;1.48;;;;;;;;;;7390278;19;20011;-62
2021/11/05 03:19:03;;;;;;;2.95;1.40;;;;;;;;;;7390279;19;20011;-62
2021/11/05 03:21:30;;;;;;;3.30;1.77;;;;;;;;;;7390152;19;20011;-62
2021/11/05 03:23:58;;;;;;;2.63;1.20;;;;;;;;;;7389880;19;20014;-62
2021/11/05 03:26:26;;;;;;;3.65;1.27;;;;;;;;;;7392167;19;20074;-62
2021/11/05 03:28:53;;;;;;;2.53;1.30;;;;;;;;;;7394652;19;20034;-62
2021/11/05 03:31:20;;;;;;;2.60;1.20;;;;;;;;;;7396707;19;20010;-62
2021/11/05 03:33:49;;;;;;;4.72;1.27;;;;;;;;;;7397877;19;20022;-62
2021/11/05 03:36:16;;;;;;;2.30;1.40;;;;;;;;;;7397075;19;20542;-62
2021/11/05 03:38:44;;;;;;;1.95;1.10;;;;;;;;;;7398152;19;20030;-61
2021/11/05 03:41:11;;;;;;;2.25;1.27;;;;;;;;;;7397255;19;20014;-61
2021/11/05 03:43:39;;;;;;;1.40;0.95;;;;;;;;;;7396928;19;20010;-62
2021/11/05 03:46:07;;;;;;;2.78;1.20;;;;;;;;;;7396691;19;20078;-61
2021/11/05 03:48:35;;;;;;;1.95;1.10;;;;;;;;;;7394601;19;20011;-61
2021/11/05 03:51:03;;;;;;;2.53;1.60;;;;;;;;;;7395940;19;20014;-62
2021/11/05 03:53:30;;;;;;;2.58;1.20;;;;;;;;;;7396289;19;20486;-61
2021/11/05 03:55:58;;;;;;;2.05;1.30;;;;;;;;;;7396479;19;20015;-62
2021/11/05 03:58:26;;;;;;;1.52;1.15;;;;;;;;;;7396488;19;20502;-62
2021/11/05 04:00:53;;;;;;;2.75;1.40;;;;;;;;;;7395857;19;20015;-61
2021/11/05 04:03:21;;;;;;;1.65;1.02;;;;;;;;;;7396658;19;20015;-61
2021/11/05 04:05:49;;;;;;;1.83;1.15;;;;;;;;;;7396067;19;20011;-62
2021/11/05 04:08:16;;;;;;;2.80;1.15;;;;;;;;;;7394717;19;20011;-62
2021/11/05 04:10:44;;;;;;;2.13;1.10;;;;;;;;;;7396899;19;20024;-62
2021/11/05 04:13:11;;;;;;;2.15;1.30;;;;;;;;;;7396095;19;20014;-62
2021/11/05 04:15:39;;;;;;;2.05;1.33;;;;;;;;;;7395919;19;20034;-62
2021/11/05 04:18:06;;;;;;;1.90;1.20;;;;;;;;;;7396156;19;20187;-62
2021/11/05 04:20:34;;;;;;;3.42;1.20;;;;;;;;;;7395956;19;20039;-61
2021/11/05 04:23:06;;;;;;;6.47;1.40;;;;;;;;;;7395846;19;20038;-62
2021/11/05 04:25:35;;;;;;;1.95;1.10;;;;;;;;;;7394806;19;20014;-61
2021/11/05 04:28:07;;;;;;;2.30;1.27;;;;;;;;;;7393981;19;20506;-63
2021/11/05 04:30:35;;;;;;;3.50;1.27;;;;;;;;;;7395071;19;20030;-61
2021/11/05 04:33:03;;;;;;;4.03;1.42;;;;;;;;;;7395662;19;20031;-62
2021/11/05 04:35:31;;;;;;;2.38;1.25;;;;;;;;;;7395177;19;20002;-62
2021/11/05 04:37:59;;;;;;;3.00;1.30;;;;;;;;;;7393062;19;20626;-62
2021/11/05 04:40:27;;;;;;;3.10;1.50;;;;;;;;;;7395015;19;20037;-63
2021/11/05 04:42:55;;;;;;;2.80;1.55;;;;;;;;;;7395151;19;20038;-62
2021/11/05 04:45:22;;;;;;;1.67;1.17;;;;;;;;;;7394945;19;20010;-62
2021/11/05 04:47:50;;;;;;;3.25;1.23;;;;;;;;;;7396629;19;20019;-62
2021/11/05 04:50:18;;;;;;;85.75;36.78;;;;;;;;;;7394425;19;20087;-61
2021/11/05 04:52:48;;;;;;;12.35;4.43;;;;;;;;;;7392657;19;20022;-62
2021/11/05 04:55:18;;;;;;;4.18;1.42;;;;;;;;;;7395198;19;20013;-62
2021/11/05 04:57:49;;;;;;;3.03;1.42;;;;;;;;;;7395114;19;20034;-62
2021/11/05 05:00:19;;;;;;;4.75;1.52;;;;;;;;;;7394503;19;20013;-63
2021/11/05 05:02:47;;;;;;;3.67;1.50;;;;;;;;;;7394728;19;20010;-62
2021/11/05 05:05:16;;;;;;;3.38;1.73;;;;;;;;;;7394234;19;20015;-62
2021/11/05 05:07:44;;;;;;;2.60;1.60;;;;;;;;;;7393932;19;20011;-61
2021/11/05 05:10:12;;;;;;;77.50;32.75;;;;;;;;;;7395068;19;20009;-62
2021/11/05 05:12:40;;;;;;;12.45;5.05;;;;;;;;;;7394233;19;20019;-62
2021/11/05 05:15:10;;;;;;;3.00;1.90;;;;;;;;;;7392396;19;20494;-62
2021/11/05 05:17:38;;;;;;;4.03;2.10;;;;;;;;;;7392266;19;20018;-62
2021/11/05 05:20:09;;;;;;;4.03;1.40;;;;;;;;;;7394057;19;20014;-63
2021/11/05 05:22:37;;;;;;;3.70;1.80;;;;;;;;;;7393252;19;20535;-62
2021/11/05 05:25:07;;;;;;;3.00;1.70;;;;;;;;;;7393849;19;20014;-62
2021/11/05 05:27:35;;;;;;;46.08;21.60;;;;;;;;;;7392871;19;20015;-66
2021/11/05 05:30:04;;;;;;;10.85;5.68;;;;;;;;;;7393425;19;20011;-62
2021/11/05 05:32:32;;;;;;;5.10;2.47;;;;;;;;;;7393161;19;20590;-61
2021/11/05 05:35:00;;;;;;;4.63;1.90;;;;;;;;;;7393689;19;20018;-61
2021/11/05 05:37:27;;;;;;;3.05;2.00;;;;;;;;;;7393309;19;20015;-60
2021/11/05 05:39:55;;;;;;;3.67;2.50;;;;;;;;;;7393221;19;20023;-61
2021/11/05 05:42:23;;;;;;;3.05;1.92;;;;;;;;;;7392527;19;20520;-62
2021/11/05 05:44:51;;;;;;;4.65;2.13;;;;;;;;;;7392522;19;20007;-62
2021/11/05 05:47:18;;;;;;;3.00;1.83;;;;;;;;;;7394515;19;20010;-60
2021/11/05 05:49:48;;;;;;;5.38;2.10;;;;;;;;;;7393379;19;20006;-60
2021/11/05 05:52:19;;;;;;;2.80;1.83;;;;;;;;;;7391462;19;20038;-61
2021/11/05 05:54:47;;;;;;;3.97;2.00;;;;;;;;;;7392914;19;20010;-63
2021/11/05 05:57:14;;;;;;;4.57;2.33;;;;;;;;;;7392737;19;20530;-60
2021/11/05 05:59:42;;;;;;;5.28;2.10;;;;;;;;;;7393084;19;20018;-62
2021/11/05 06:02:10;;;;;;;6.78;3.17;;;;;;;;;;7395507;19;20081;-63
2021/11/05 06:04:38;;;;;;;54.53;28.23;;;;;;;;;;7392401;19;20039;-63
2021/11/05 06:07:06;;;;;;;16.60;9.13;;;;;;;;;;7391545;19;20411;-62
2021/11/05 06:09:34;;;;;;;6.22;3.38;;;;;;;;;;7390863;19;20069;-62
2021/11/05 06:12:03;;;;;;;5.75;2.78;;;;;;;;;;7391848;19;20007;-61
2021/11/05 06:14:30;;;;;;;6.85;3.35;;;;;;;;;;7391834;19;20011;-61
2021/11/05 06:16:58;;;;;;;6.90;3.33;;;;;;;;;;7392227;19;20006;-62
2021/11/05 06:19:26;;;;;;;6.40;3.50;;;;;;;;;;7391639;19;20600;-62
2021/11/05 06:21:54;;;;;;;5.53;3.78;;;;;;;;;;7391578;19;20073;-62
2021/11/05 06:24:22;;;;;;;9.25;3.20;;;;;;;;;;7391281;19;20029;-62
2021/11/05 06:26:51;;;;;;;8.30;3.80;;;;;;;;;;7391095;19;20031;-62
2021/11/05 06:29:18;;;;;;;5.38;3.58;;;;;;;;;;7389994;19;20011;-62
2021/11/05 06:31:46;;;;;;;6.63;3.63;;;;;;;;;;7391755;19;20036;-61
2021/11/05 06:34:13;;;;;;;101.93;44.95;;;;;;;;;;7392008;19;20019;-62
2021/11/05 06:36:41;;;;;;;9.48;5.65;;;;;;;;;;7391270;19;20095;-62
2021/11/05 06:39:10;;;;;;;5.75;4.03;;;;;;;;;;7392129;19;20078;-62
2021/11/05 06:41:38;;;;;;;6.65;4.22;;;;;;;;;;7391270;19;20011;-62
2021/11/05 06:44:05;;;;;;;6.88;4.45;;;;;;;;;;7389254;19;20034;-61
2021/11/05 06:46:33;;;;;;;7.15;4.10;;;;;;;;;;7391909;19;20006;-62
2021/11/05 06:49:01;;;;;;;6.43;3.90;;;;;;;;;;7390112;19;20019;-62
2021/11/05 06:51:29;;;;;;;7.78;4.40;;;;;;;;;;7389991;19;20010;-61
2021/11/05 06:53:56;;;;;;;11.70;5.53;;;;;;;;;;7390848;19;20014;-62
2021/11/05 06:56:24;;;;;;;8.57;4.75;;;;;;;;;;7388893;19;20041;-62
2021/11/05 06:58:55;;;;;;;12.60;8.15;;;;;;;;;;7390886;19;20475;-62
2021/11/05 07:01:24;;;;;;;8.90;5.80;;;;;;;;;;7389419;19;20007;-62
2021/11/05 07:03:52;;;;;;;8.60;5.07;;;;;;;;;;7390282;19;20010;-62
2021/11/05 07:06:20;;;;;;;8.38;4.70;;;;;;;;;;7388839;19;20086;-62
2021/11/05 07:08:47;;;;;;;8.05;5.38;;;;;;;;;;7389746;19;20047;-62
2021/11/05 07:11:15;;;;;;;7.55;4.95;;;;;;;;;;7389989;19;20014;-62
2021/11/05 07:13:43;;;;;;;7.57;4.97;;;;;;;;;;7390487;19;20035;-62
2021/11/05 07:16:11;;;;;;;10.13;5.32;;;;;;;;;;7390315;19;20010;-62
2021/11/05 07:18:39;;;;;;;7.93;4.53;;;;;;;;;;7389544;19;20023;-62
2021/11/05 07:21:12;;;;;;;13.35;5.22;;;;;;;;;;7389871;19;20022;-62
2021/11/05 07:23:40;;;;;;;7.50;4.45;;;;;;;;;;7390065;19;20019;-62
2021/11/05 07:26:11;;;;;;;8.77;5.25;;;;;;;;;;7389629;19;20361;-62
2021/11/05 07:28:40;;;;;;;9.25;5.30;;;;;;;;;;7388870;19;20471;-62
2021/11/05 07:31:07;;;;;;;11.68;6.00;;;;;;;;;;7389597;19;20010;-62
2021/11/05 07:33:35;;;;;;;10.68;6.18;;;;;;;;;;7390289;19;20082;-62
2021/11/05 07:36:03;;;;;;;13.57;6.47;;;;;;;;;;7389581;19;20485;-62
2021/11/05 07:38:30;;;;;;;9.23;6.38;;;;;;;;;;7389617;19;20010;-61
2021/11/05 07:40:58;;;;;;;9.30;6.65;;;;;;;;;;7389370;19;20011;-62
2021/11/05 07:43:26;;;;;;;8.43;5.78;;;;;;;;;;7389057;19;20351;-62
2021/11/05 07:45:53;;;;;;;9.75;5.75;;;;;;;;;;7389092;19;20078;-62
2021/11/05 07:48:25;;;;;;;10.02;5.70;;;;;;;;;;7388833;19;20013;-62
2021/11/05 07:50:53;;;;;;;7.13;4.32;;;;;;;;;;7388749;19;20092;-63
2021/11/05 07:53:21;;;;;;;6.90;4.40;;;;;;;;;;7388970;19;20017;-62
2021/11/05 07:55:48;;;;;;;6.60;4.40;;;;;;;;;;7388952;19;20032;-62
2021/11/05 07:58:16;;;;;;;8.05;4.35;;;;;;;;;;7386980;19;20027;-63
2021/11/05 08:00:44;;;;;;;7.13;5.10;;;;;;;;;;7389629;19;20011;-62
2021/11/05 08:03:12;;;;;;;8.05;4.82;;;;;;;;;;7389179;19;20016;-62
2021/11/05 08:05:40;;;;;;;10.63;5.28;;;;;;;;;;7388549;19;20161;-62
2021/11/05 08:08:07;;;;;;;11.02;6.20;;;;;;;;;;7388722;19;20433;-62
2021/11/05 08:10:35;;;;;;;12.15;6.53;;;;;;;;;;7388858;19;20011;-62
2021/11/05 08:13:02;;;;;;;9.77;6.60;;;;;;;;;;7389763;19;20521;-62
2021/11/05 08:15:30;;;;;;;9.93;6.20;;;;;;;;;;7394444;19;20011;-63
2021/11/05 08:17:58;;;;;;;9.82;6.88;;;;;;;;;;7395611;19;20015;-62
2021/11/05 08:20:25;;;;;;;8.98;6.20;;;;;;;;;;7395679;19;20035;-62
2021/11/05 08:22:53;;;;;;;10.77;6.55;;;;;;;;;;7396077;19;20028;-61
2021/11/05 08:25:21;;;;;;;10.65;6.90;;;;;;;;;;7396462;19;20035;-62
2021/11/05 08:27:49;;;;;;;8.20;4.93;;;;;;;;;;7395987;19;20017;-62
2021/11/05 08:30:22;;;;;;;7.95;4.90;;;;;;;;;;7395584;19;20023;-62
2021/11/05 08:32:52;;;;;;;9.50;5.60;;;;;;;;;;7395767;19;20007;-62
2021/11/05 08:35:22;;;;;;;9.25;4.53;;;;;;;;;;7395116;19;20060;-62
2021/11/05 08:37:51;;;;;;;10.68;5.10;;;;;;;;;;7394859;19;20081;-62
2021/11/05 08:40:19;;;;;;;10.05;5.60;;;;;;;;;;7395198;19;20014;-62
2021/11/05 08:42:47;;;;;;;6.78;4.35;;;;;;;;;;7395633;19;20082;-62
2021/11/05 08:45:14;;;;;;;8.45;4.88;;;;;;;;;;7395303;19;20082;-62
2021/11/05 08:47:43;;;;;;;7.05;4.38;;;;;;;;;;7398382;19;20014;-62
2021/11/05 08:50:14;;;;;;;7.97;4.47;;;;;;;;;;7392436;19;20018;-62
2021/11/05 08:52:42;;;;;;;7.47;4.35;;;;;;;;;;7392628;19;20018;-62
2021/11/05 08:55:11;;;;;;;7.40;4.53;;;;;;;;;;7394179;19;20010;-62
2021/11/05 08:57:39;;;;;;;8.90;5.15;;;;;;;;;;7394203;19;20070;-62
2021/11/05 09:00:13;;;;;;;5.80;4.50;;;;;;;;;;7394345;19;20007;-62
2021/11/05 09:02:42;;;;;;;6.00;4.38;;;;;;;;;;7394597;19;20034;-62
2021/11/05 09:05:17;;;;;;;8.55;4.95;;;;;;;;;;7394580;19;20010;-62
2021/11/05 09:07:46;;;;;;;7.60;4.97;;;;;;;;;;7394248;19;20015;-61
2021/11/05 09:10:14;;;;;;;6.47;4.15;;;;;;;;;;7392517;19;20485;-62
2021/11/05 09:12:42;;;;;;;8.57;4.13;;;;;;;;;;7394026;19;20014;-62
2021/11/05 09:15:13;;;;;;;7.75;4.57;;;;;;;;;;7393754;19;20009;-62
2021/11/05 09:17:41;;;;;;;7.80;5.13;;;;;;;;;;7393950;19;20091;-62
2021/11/05 09:20:10;;;;;;;7.18;4.35;;;;;;;;;;7393734;19;20007;-62
2021/11/05 09:22:40;;;;;;;7.85;4.20;;;;;;;;;;7393799;19;20040;-62
2021/11/05 09:25:08;;;;;;;6.90;4.25;;;;;;;;;;7392877;19;20015;-62
2021/11/05 09:27:36;;;;;;;10.18;4.65;;;;;;;;;;7393689;19;20034;-62
2021/11/05 09:30:06;;;;;;;7.22;4.40;;;;;;;;;;7391156;19;20011;-62
2021/11/05 09:32:34;;;;;;;8.85;4.68;;;;;;;;;;7393790;19;20019;-62
2021/11/05 09:35:01;;;;;;;9.30;5.68;;;;;;;;;;7393502;19;20018;-61
2021/11/05 09:37:29;;;;;;;5.47;4.00;;;;;;;;;;7393489;19;20010;-62
2021/11/05 09:39:56;;;;;;;9.35;4.50;;;;;;;;;;7393103;19;20074;-62
2021/11/05 09:42:24;;;;;;;8.48;4.82;;;;;;;;;;7390805;19;20381;-61
2021/11/05 09:44:52;;;;;;;9.65;4.70;;;;;;;;;;7393719;19;20010;-62
2021/11/05 09:47:20;;;;;;;9.07;4.72;;;;;;;;;;7394452;19;20031;-62
2021/11/05 09:49:48;;;;;;;8.05;4.70;;;;;;;;;;7391804;19;20105;-62
2021/11/05 09:52:16;;;;;;;6.85;4.13;;;;;;;;;;7391510;19;20037;-61
2021/11/05 09:54:48;;;;;;;9.77;4.93;;;;;;;;;;7393178;19;20498;-61
2021/11/05 09:57:16;;;;;;;7.28;4.32;;;;;;;;;;7392734;19;20049;-61
2021/11/05 09:59:44;;;;;;;8.88;5.35;;;;;;;;;;7393052;19;20028;-62
2021/11/05 10:02:15;;;;;;;6.88;4.80;;;;;;;;;;7393582;19;20490;-61
2021/11/05 10:04:44;;;;;;;8.18;4.90;;;;;;;;;;7392012;19;20006;-62
2021/11/05 10:07:12;;;;;;;9.57;5.53;;;;;;;;;;7391945;19;20017;-61
2021/11/05 10:09:50;;;;;;;6.07;4.22;;;;;;;;;;7390912;19;20034;-62
2021/11/05 10:12:20;;;;;;;9.00;5.07;;;;;;;;;;7390728;19;20003;-61
2021/11/05 10:14:57;;;;;;;7.90;5.38;;;;;;;;;;7392780;19;20051;-62
2021/11/05 10:17:27;;;;;;;11.55;7.20;;;;;;;;;;7392103;19;20014;-62
2021/11/05 10:20:01;;;;;;;10.73;7.10;;;;;;;;;;7391564;19;20035;-62
2021/11/05 10:22:53;;;;;;;11.60;4.97;;;;;;;;;;7390328;19;20494;-61
2021/11/05 10:25:44;;;;;;;9.95;6.75;;;;;;;;;;7391671;19;20011;-62
2021/11/05 10:28:29;;;;;;;8.38;5.30;;;;;;;;;;7389725;19;20006;-62
2021/11/05 10:31:03;;;;;;;;;;;;;;;;;;7392400;19;20497;-62
2021/11/05 10:33:38;;;;;;;8.40;5.32;;;;;;;;;;7391590;19;19939;-62
2021/11/05 10:36:09;;;;;;;10.98;6.43;;;;;;;;;;7389485;19;20010;-62
2021/11/05 10:38:44;;;;;;;10.05;6.15;;;;;;;;;;7391368;19;20407;-62
2021/11/05 10:41:21;;;;;;;7.35;5.05;;;;;;;;;;7391113;19;20006;-63
2021/11/05 10:43:52;;;;;;;7.75;4.80;;;;;;;;;;7391262;19;20486;-62
2021/11/05 10:46:25;;;;;;;10.82;6.15;;;;;;;;;;7392555;19;20014;-62
2021/11/05 10:48:55;;;;;;;12.50;6.30;;;;;;;;;;7390967;19;20011;-62
2021/11/05 10:51:25;;;;;;;9.98;6.75;;;;;;;;;;7389873;19;20025;-62
2021/11/05 10:53:57;;;;;;;10.23;7.20;;;;;;;;;;7391554;19;20047;-62
2021/11/05 10:56:29;;;;;;;17.35;10.25;;;;;;;;;;7391194;19;20078;-61
2021/11/05 10:59:06;;;;;;;12.38;8.07;;;;;;;;;;7390968;19;20007;-62
2021/11/05 11:01:36;;;;;;;13.23;8.98;;;;;;;;;;7390904;19;20029;-61
2021/11/05 11:04:06;;;;;;;16.67;10.95;;;;;;;;;;7387581;19;20010;-61
2021/11/05 11:06:42;;;;;;;22.02;16.48;;;;;;;;;;7386977;19;20360;-62
2021/11/05 11:09:13;;;;;;;21.50;14.75;;;;;;;;;;7388132;19;20048;-62
2021/11/05 11:11:48;;;;;;;21.02;15.18;;;;;;;;;;7389915;19;20687;-61
2021/11/05 11:14:36;;;;;;;17.35;11.20;;;;;;;;;;7390627;19;20010;-61
2021/11/05 11:17:10;;;;;;;10.82;7.70;;;;;;;;;;7389858;19;20011;-62
2021/11/05 11:19:44;;;;;;;14.30;8.45;;;;;;;;;;7391781;19;20030;-61
2021/11/05 11:22:11;;;;;;;12.85;7.18;;;;;;;;;;7389474;19;20025;-62
2021/11/05 11:24:41;;;;;;;12.18;7.22;;;;;;;;;;7389934;19;20011;-61
2021/11/05 11:27:10;;;;;;;9.93;6.70;;;;;;;;;;7389288;19;20025;-61
2021/11/05 11:29:53;;;;;;;10.95;6.90;;;;;;;;;;7388753;19;20486;-61
2021/11/05 11:32:21;;;;;;;10.73;6.60;;;;;;;;;;7390535;19;20018;-62
2021/11/05 11:34:50;;;;;;;15.25;8.45;;;;;;;;;;7389696;19;20015;-62
2021/11/05 11:37:19;;;;;;;12.27;7.70;;;;;;;;;;7390096;19;20521;-61
2021/11/05 11:39:47;;;;;;;10.40;8.23;;;;;;;;;;7389162;19;20014;-61
2021/11/05 11:42:15;;;;;;;13.43;10.27;;;;;;;;;;7389565;19;20018;-61
2021/11/05 11:44:43;;;;;;;11.75;9.23;;;;;;;;;;7389209;19;20050;-61
2021/11/05 11:47:13;;;;;;;13.10;8.48;;;;;;;;;;7393239;19;20508;-61
2021/11/05 11:49:40;;;;;;;12.73;7.38;;;;;;;;;;7394958;19;20014;-62
2021/11/05 11:52:14;;;;;;;9.65;5.40;;;;;;;;;;7394915;19;20071;-61
2021/11/05 11:54:45;;;;;;;7.72;4.68;;;;;;;;;;7396775;19;20027;-62
2021/11/05 11:57:20;;;;;;;6.18;4.60;;;;;;;;;;7396557;19;20503;-61
2021/11/05 12:00:04;;;;;;;9.85;5.47;;;;;;;;;;7396530;19;20364;-60
2021/11/05 12:02:44;;;;;;;10.07;5.30;;;;;;;;;;7396376;19;20018;-60
2021/11/05 12:05:21;;;;;;;8.38;5.80;;;;;;;;;;7396269;19;20014;-59
2021/11/05 12:08:18;;;;;;;8.82;5.72;;;;;;;;;;7396438;19;20007;-59
2021/11/05 12:10:51;;;;;;;9.45;5.85;;;;;;;;;;7393324;19;20007;-60
2021/11/05 12:13:35;;;;;;;10.00;6.38;;;;;;;;;;7395824;19;20034;-60
2021/11/05 12:16:26;;;;;;;11.02;5.03;;;;;;;;;;7396258;19;20026;-59
2021/11/05 12:18:58;;;;;;;10.25;5.95;;;;;;;;;;7395600;19;20014;-59
2021/11/05 12:21:36;;;;;;;9.82;6.32;;;;;;;;;;7395206;19;20017;-59
2021/11/05 12:24:23;;;;;;;15.15;9.50;;;;;;;;;;7395483;19;20040;-59
2021/11/05 12:26:57;;;;;;;14.38;8.30;;;;;;;;;;7396137;19;20071;-59
2021/11/05 12:29:32;;;;;;;12.07;8.13;;;;;;;;;;7394551;19;20585;-59
2021/11/05 12:32:18;;;;;;;14.00;10.23;;;;;;;;;;7395388;19;20024;-59
2021/11/05 12:34:50;;;;;;;10.18;7.32;;;;;;;;;;7395123;19;20485;-59
2021/11/05 12:37:34;;;;;;;8.93;5.72;;;;;;;;;;7394988;19;20034;-59
2021/11/05 12:40:23;;;;;;;9.90;4.15;;;;;;;;;;7396179;19;20007;-59
2021/11/05 12:42:54;;;;;;;7.40;4.40;;;;;;;;;;7394673;19;20090;-59
2021/11/05 12:45:42;;;;;;;8.18;4.70;;;;;;;;;;7395238;19;20019;-59
2021/11/05 12:48:11;;;;;;;6.90;3.75;;;;;;;;;;7398914;19;20494;-59
2021/11/05 12:50:44;;;;;;;6.13;3.83;;;;;;;;;;7392907;19;20014;-59
2021/11/05 12:53:13;;;;;;;7.80;4.03;;;;;;;;;;7394772;19;20486;-59
2021/11/05 12:55:44;;;;;;;8.43;4.88;;;;;;;;;;7394861;19;20030;-60
2021/11/05 12:58:17;;;;;;;8.48;4.03;;;;;;;;;;7390972;19;20014;-59
2021/11/05 13:01:05;;;;;;;8.40;4.25;;;;;;;;;;7391591;19;20014;-59
2021/11/05 13:03:34;;;;;;;7.72;4.45;;;;;;;;;;7390959;19;20014;-59
2021/11/05 13:06:01;;;;;;;9.30;4.65;;;;;;;;;;7390817;19;20018;-59
2021/11/05 13:08:31;;;;;;;10.60;4.60;;;;;;;;;;7390396;19;20025;-60
2021/11/05 13:11:16;;;;;;;8.60;4.03;;;;;;;;;;7388359;19;20015;-59
2021/11/05 13:13:55;;;;;;;7.75;3.97;;;;;;;;;;7390714;19;20819;-59
2021/11/05 13:16:23;;;;;;;6.22;3.95;;;;;;;;;;7392206;19;20011;-60
2021/11/05 13:18:51;;;;;;;8.13;4.32;;;;;;;;;;7392100;19;20011;-59
2021/11/05 13:21:21;;;;;;;19.13;9.00;;;;;;;;;;7392750;19;20364;-62
2021/11/05 13:23:49;;;;;;;21.48;9.35;;;;;;;;;;7393738;19;20131;-59
2021/11/05 13:26:28;;;;;;;8.18;4.85;;;;;;;;;;7393279;19;20085;-61
2021/11/05 13:28:56;;;;;;;9.13;4.22;;;;;;;;;;7392819;19;20027;-60
2021/11/05 13:31:26;;;;;;;8.18;4.10;;;;;;;;;;7391513;19;20011;-60
2021/11/05 13:33:53;;;;;;;6.78;3.65;;;;;;;;;;7393247;19;20470;-60
2021/11/05 13:36:21;;;;;;;7.07;3.83;;;;;;;;;;7393580;19;20119;-59
2021/11/05 13:38:51;;;;;;;8.05;3.50;;;;;;;;;;7394971;19;20028;-59
2021/11/05 13:41:25;;;;;;;6.07;3.42;;;;;;;;;;7393050;19;20018;-59
2021/11/05 13:43:56;;;;;;;8.43;4.20;;;;;;;;;;7392716;19;20508;-59
2021/11/05 13:46:29;;;;;;;5.78;3.50;;;;;;;;;;7393531;19;20262;-59
2021/11/05 13:49:03;;;;;;;4.95;2.88;;;;;;;;;;7393060;19;20026;-60
2021/11/05 13:51:33;;;;;;;6.22;3.28;;;;;;;;;;7390375;19;20011;-60
2021/11/05 13:54:04;;;;;;;6.20;3.05;;;;;;;;;;7392928;19;20011;-60
2021/11/05 13:56:40;;;;;;;5.28;3.15;;;;;;;;;;7392158;19;20481;-60
2021/11/05 13:59:23;;;;;;;6.38;3.13;;;;;;;;;;7392296;19;20023;-61
2021/11/05 14:01:53;;;;;;;5.18;2.60;;;;;;;;;;7393278;19;20098;-61
2021/11/05 14:04:22;;;;;;;5.70;3.10;;;;;;;;;;7395155;19;20011;-60
2021/11/05 14:06:54;;;;;;;12.43;5.20;;;;;;;;;;7392030;19;20093;-60
2021/11/05 14:09:32;;;;;;;5.85;3.38;;;;;;;;;;7391461;19;20010;-63
2021/11/05 14:12:02;;;;;;;34.00;15.60;;;;;;;;;;7389843;19;20019;-60
2021/11/05 14:14:32;;;;;;;10.05;4.38;;;;;;;;;;7392590;19;20086;-60
2021/11/05 14:17:04;;;;;;;6.45;3.25;;;;;;;;;;7391888;19;20482;-61
2021/11/05 14:19:34;;;;;;;5.78;3.53;;;;;;;;;;7391913;19;20014;-61
2021/11/05 14:22:01;;;;;;;4.70;2.60;;;;;;;;;;7391414;19;20015;-61
2021/11/05 14:24:36;;;;;;;5.78;3.22;;;;;;;;;;7392191;19;20017;-61
2021/11/05 14:27:19;;;;;;;4.78;2.70;;;;;;;;;;7391536;19;20006;-61
2021/11/05 14:29:49;;;;;;;5.20;2.60;;;;;;;;;;7390255;19;20010;-60
2021/11/05 14:32:40;;;;;;;5.32;2.50;;;;;;;;;;7391019;19;20010;-61
2021/11/05 14:35:22;;;;;;;5.20;2.58;;;;;;;;;;7391460;19;20054;-60
2021/11/05 14:37:59;;;;;;;10.38;3.65;;;;;;;;;;7391618;19;20255;-60
2021/11/05 14:40:32;;;;;;;6.18;3.22;;;;;;;;;;7390840;19;20077;-60
2021/11/05 14:43:07;;;;;;;6.20;3.80;;;;;;;;;;7391510;19;20006;-60
2021/11/05 14:45:40;;;;;;;9.60;4.50;;;;;;;;;;7390654;19;20022;-60
2021/11/05 14:48:13;;;;;;;;;;;;;;;;;;7396108;19;20018;-60
2021/11/05 14:50:48;;;;;;;6.50;3.67;;;;;;;;;;7389330;19;19915;-60
2021/11/05 14:53:43;;;;;;;5.53;3.05;;;;;;;;;;7391038;19;20106;-60
2021/11/05 14:56:17;;;;;;;5.15;3.17;;;;;;;;;;7390404;19;20013;-60
2021/11/05 14:58:46;;;;;;;6.53;2.67;;;;;;;;;;7391082;19;20016;-60